Time;durP1;ratioP1;P1;durP2;ratioP2;P2;SDS_P1;SDS_P2;PMS_P1;PMS_P2;Temp;Humidity;BMP_temperature;BMP_pressure;BME280_temperature;BME280_humidity;BME280_pressure;Samples;Min_cycle;Max_cycle;Signal;HPM_P1;HPM_P2
2024/01/21 00:01:08;;;;;;;9.85;6.35;;;;;;;;;;5010635;28;20463;-77
2024/01/21 00:03:34;;;;;;;12.18;6.85;;;;;;;;;;5025714;28;20514;-77
2024/01/21 00:06:00;;;;;;;10.35;6.50;;;;;;;;;;5028051;28;20586;-77
2024/01/21 00:08:26;;;;;;;10.48;6.75;;;;;;;;;;5034117;28;20037;-77
2024/01/21 00:10:52;;;;;;;10.48;6.63;;;;;;;;;;5030428;28;20042;-77
2024/01/21 00:13:18;;;;;;;12.65;6.03;;;;;;;;;;5033726;28;20045;-77
2024/01/21 00:15:44;;;;;;;11.70;6.63;;;;;;;;;;5033481;28;20073;-77
2024/01/21 00:18:10;;;;;;;10.15;6.30;;;;;;;;;;5033128;28;20048;-77
2024/01/21 00:20:36;;;;;;;10.43;6.45;;;;;;;;;;5032463;28;20397;-77
2024/01/21 00:23:02;;;;;;;10.75;6.60;;;;;;;;;;5033361;28;20488;-77
2024/01/21 00:25:28;;;;;;;8.55;6.45;;;;;;;;;;5033602;28;20096;-77
2024/01/21 00:27:54;;;;;;;9.93;6.53;;;;;;;;;;5007584;28;20505;-77
2024/01/21 00:30:20;;;;;;;8.90;5.65;;;;;;;;;;5027212;28;20125;-77
2024/01/21 00:32:46;;;;;;;9.95;6.03;;;;;;;;;;5022050;28;20038;-77
2024/01/21 00:35:12;;;;;;;10.68;6.30;;;;;;;;;;5033388;28;20054;-77
2024/01/21 00:37:38;;;;;;;9.43;6.03;;;;;;;;;;5032003;28;20100;-77
2024/01/21 00:40:08;;;;;;;9.98;6.18;;;;;;;;;;5033479;28;20050;-77
2024/01/21 00:42:34;;;;;;;9.88;6.47;;;;;;;;;;5006962;28;20050;-77
2024/01/21 00:45:00;;;;;;;9.38;5.70;;;;;;;;;;5029283;28;20146;-77
2024/01/21 00:47:26;;;;;;;10.13;5.82;;;;;;;;;;5033238;28;20050;-77
2024/01/21 00:49:52;;;;;;;9.30;6.55;;;;;;;;;;5026849;28;20053;-77
2024/01/21 00:52:18;;;;;;;9.60;6.20;;;;;;;;;;5006332;28;20072;-77
2024/01/21 00:54:44;;;;;;;9.85;6.03;;;;;;;;;;5011179;28;20427;-77
2024/01/21 00:57:11;;;;;;;9.50;6.57;;;;;;;;;;5023646;28;20390;-77
2024/01/21 00:59:37;;;;;;;8.60;5.78;;;;;;;;;;5028919;28;20116;-77
2024/01/21 01:02:03;;;;;;;8.88;6.13;;;;;;;;;;5032700;28;20526;-77
2024/01/21 01:04:29;;;;;;;9.20;5.95;;;;;;;;;;5032594;28;20057;-77
2024/01/21 01:06:55;;;;;;;8.95;5.57;;;;;;;;;;5027822;28;20045;-77
2024/01/21 01:09:21;;;;;;;9.55;6.10;;;;;;;;;;5015118;28;20054;-77
2024/01/21 01:11:47;;;;;;;11.10;6.50;;;;;;;;;;5006353;28;20100;-77
2024/01/21 01:14:13;;;;;;;10.95;6.15;;;;;;;;;;5008454;28;20115;-77
2024/01/21 01:16:39;;;;;;;9.20;6.63;;;;;;;;;;5021462;28;20562;-77
2024/01/21 01:19:06;;;;;;;8.25;5.68;;;;;;;;;;5020732;28;20049;-77
2024/01/21 01:21:32;;;;;;;10.48;6.50;;;;;;;;;;5015731;28;20456;-77
2024/01/21 01:23:58;;;;;;;9.55;6.03;;;;;;;;;;5009271;28;20041;-78
2024/01/21 01:26:24;;;;;;;9.07;6.78;;;;;;;;;;5006566;28;20046;-77
2024/01/21 01:28:50;;;;;;;11.50;6.72;;;;;;;;;;5028864;28;20037;-77
2024/01/21 01:31:20;;;;;;;11.90;7.13;;;;;;;;;;4987275;28;20048;-76
2024/01/21 01:33:46;;;;;;;9.57;6.55;;;;;;;;;;5032337;28;20049;-77
2024/01/21 01:36:12;;;;;;;8.18;5.88;;;;;;;;;;5008168;28;20092;-77
2024/01/21 01:38:38;;;;;;;9.68;6.80;;;;;;;;;;5001723;28;20049;-77
2024/01/21 01:41:04;;;;;;;9.85;6.35;;;;;;;;;;5023042;28;20045;-77
2024/01/21 01:43:30;;;;;;;9.15;5.93;;;;;;;;;;5029367;28;20045;-77
2024/01/21 01:46:00;;;;;;;9.82;6.63;;;;;;;;;;5022321;28;20054;-77
2024/01/21 01:48:27;;;;;;;9.48;5.78;;;;;;;;;;5015724;28;20148;-77
2024/01/21 01:50:54;;;;;;;9.48;6.32;;;;;;;;;;5028826;28;20120;-77
2024/01/21 01:53:20;;;;;;;9.98;6.40;;;;;;;;;;5017871;28;20041;-77
2024/01/21 01:55:46;;;;;;;9.90;5.93;;;;;;;;;;5032352;28;20128;-77
2024/01/21 01:58:15;;;;;;;9.00;5.50;;;;;;;;;;5015310;28;20141;-77
2024/01/21 02:00:41;;;;;;;7.85;5.65;;;;;;;;;;5005179;28;20056;-77
2024/01/21 02:03:08;;;;;;;9.18;5.63;;;;;;;;;;5028017;28;20072;-77
2024/01/21 02:05:34;;;;;;;9.70;5.03;;;;;;;;;;5021272;28;20041;-77
2024/01/21 02:08:00;;;;;;;8.35;5.40;;;;;;;;;;5020251;28;20049;-77
2024/01/21 02:10:29;;;;;;;7.90;5.35;;;;;;;;;;5025273;28;20068;-77
2024/01/21 02:12:56;;;;;;;8.73;5.20;;;;;;;;;;5019379;28;20088;-77
2024/01/21 02:15:22;;;;;;;8.07;4.80;;;;;;;;;;5027718;28;20075;-77
2024/01/21 02:17:48;;;;;;;6.93;4.93;;;;;;;;;;5021490;28;20046;-77
2024/01/21 02:20:14;;;;;;;8.50;5.45;;;;;;;;;;5034261;28;20045;-77
2024/01/21 02:22:41;;;;;;;8.38;5.43;;;;;;;;;;5025130;28;20129;-77
2024/01/21 02:25:10;;;;;;;8.30;5.05;;;;;;;;;;5019281;28;20077;-77
2024/01/21 02:27:40;;;;;;;7.57;4.90;;;;;;;;;;5021708;28;20045;-77
2024/01/21 02:30:06;;;;;;;9.35;5.63;;;;;;;;;;5005941;28;20046;-77
2024/01/21 02:32:33;;;;;;;7.82;5.30;;;;;;;;;;5015656;28;20048;-77
2024/01/21 02:34:59;;;;;;;8.20;5.22;;;;;;;;;;5023240;28;20468;-77
2024/01/21 02:37:25;;;;;;;8.05;5.18;;;;;;;;;;5031310;28;20141;-77
2024/01/21 02:39:51;;;;;;;8.30;4.82;;;;;;;;;;5016891;28;20136;-77
2024/01/21 02:42:17;;;;;;;7.72;5.45;;;;;;;;;;5022590;28;20041;-77
2024/01/21 02:44:43;;;;;;;10.85;5.95;;;;;;;;;;5035688;28;20064;-77
2024/01/21 02:47:09;;;;;;;7.55;4.97;;;;;;;;;;5006826;28;20042;-77
2024/01/21 02:49:35;;;;;;;9.75;5.85;;;;;;;;;;5017813;28;20488;-77
2024/01/21 02:52:01;;;;;;;8.95;5.07;;;;;;;;;;5004436;28;20042;-77
2024/01/21 02:54:27;;;;;;;7.75;5.20;;;;;;;;;;5034465;28;20046;-78
2024/01/21 02:56:53;;;;;;;7.18;4.82;;;;;;;;;;5028691;28;20048;-77
2024/01/21 02:59:19;;;;;;;7.50;5.57;;;;;;;;;;5010894;28;20049;-77
2024/01/21 03:01:45;;;;;;;7.90;5.35;;;;;;;;;;5022107;28;20076;-77
2024/01/21 03:04:14;;;;;;;9.27;5.47;;;;;;;;;;5004735;28;20081;-77
2024/01/21 03:06:41;;;;;;;7.38;5.15;;;;;;;;;;5025353;28;20041;-77
2024/01/21 03:09:07;;;;;;;6.22;4.43;;;;;;;;;;5026900;28;20132;-77
2024/01/21 03:11:33;;;;;;;7.68;5.45;;;;;;;;;;5027971;28;20049;-77
2024/01/21 03:13:59;;;;;;;8.38;5.88;;;;;;;;;;5025451;28;20088;-77
2024/01/21 03:16:25;;;;;;;7.78;5.28;;;;;;;;;;5033620;28;20068;-77
2024/01/21 03:18:51;;;;;;;9.48;5.72;;;;;;;;;;5034634;28;20053;-77
2024/01/21 03:21:17;;;;;;;7.30;5.10;;;;;;;;;;5028121;28;20111;-77
2024/01/21 03:23:46;;;;;;;7.95;4.95;;;;;;;;;;5010731;28;20353;-77
2024/01/21 03:26:12;;;;;;;8.93;5.90;;;;;;;;;;5004557;28;20051;-77
2024/01/21 03:28:38;;;;;;;7.32;4.72;;;;;;;;;;5029985;28;20549;-77
2024/01/21 03:31:04;;;;;;;8.15;4.82;;;;;;;;;;5016720;28;20045;-77
2024/01/21 03:33:31;;;;;;;7.03;4.72;;;;;;;;;;5021634;28;20131;-77
2024/01/21 03:35:57;;;;;;;6.65;4.85;;;;;;;;;;5008394;28;20489;-77
2024/01/21 03:38:23;;;;;;;6.68;4.90;;;;;;;;;;5010996;28;20053;-77
2024/01/21 03:40:49;;;;;;;8.77;5.07;;;;;;;;;;5026980;28;20054;-77
2024/01/21 03:43:15;;;;;;;8.23;5.13;;;;;;;;;;4995610;28;20045;-77
2024/01/21 03:45:41;;;;;;;7.63;4.97;;;;;;;;;;5008357;28;20056;-77
2024/01/21 03:48:07;;;;;;;7.55;5.28;;;;;;;;;;5029165;28;20547;-77
2024/01/21 03:50:33;;;;;;;7.57;4.45;;;;;;;;;;5008741;28;20050;-77
2024/01/21 03:52:59;;;;;;;6.78;4.60;;;;;;;;;;4982886;28;20208;-77
2024/01/21 03:55:27;;;;;;;7.85;4.90;;;;;;;;;;5005869;28;20038;-77
2024/01/21 03:57:53;;;;;;;7.75;4.53;;;;;;;;;;5001893;28;20045;-77
2024/01/21 04:00:19;;;;;;;7.70;4.88;;;;;;;;;;4997716;28;20471;-77
2024/01/21 04:02:45;;;;;;;7.50;4.25;;;;;;;;;;5002756;28;20104;-77
2024/01/21 04:05:11;;;;;;;7.35;4.60;;;;;;;;;;5020958;28;20046;-77
2024/01/21 04:07:37;;;;;;;7.13;4.80;;;;;;;;;;4986603;28;20045;-77
2024/01/21 04:10:04;;;;;;;6.80;4.50;;;;;;;;;;5009108;28;20042;-77
2024/01/21 04:12:30;;;;;;;7.72;4.50;;;;;;;;;;5027968;28;20515;-77
2024/01/21 04:14:56;;;;;;;7.13;4.68;;;;;;;;;;5033738;28;20199;-77
2024/01/21 04:17:23;;;;;;;5.43;3.83;;;;;;;;;;5031904;28;20045;-77
2024/01/21 04:19:49;;;;;;;6.03;3.63;;;;;;;;;;5014378;28;20045;-78
2024/01/21 04:22:18;;;;;;;6.55;4.15;;;;;;;;;;5027885;28;20129;-77
2024/01/21 04:24:44;;;;;;;6.82;4.35;;;;;;;;;;5015678;28;20045;-77
2024/01/21 04:27:10;;;;;;;6.72;4.25;;;;;;;;;;5032817;28;20389;-77
2024/01/21 04:29:36;;;;;;;6.82;4.32;;;;;;;;;;5033054;28;20498;-77
2024/01/21 04:32:03;;;;;;;8.18;5.07;;;;;;;;;;5000763;28;20049;-77
2024/01/21 04:34:29;;;;;;;7.32;4.22;;;;;;;;;;4997747;28;20127;-77
2024/01/21 04:36:55;;;;;;;6.03;4.30;;;;;;;;;;5029470;28;20080;-77
2024/01/21 04:39:22;;;;;;;6.72;4.75;;;;;;;;;;5015577;28;20136;-77
2024/01/21 04:41:48;;;;;;;6.15;4.03;;;;;;;;;;5021148;28;20151;-78
2024/01/21 04:44:14;;;;;;;7.05;4.47;;;;;;;;;;5026758;28;20499;-77
2024/01/21 04:46:40;;;;;;;6.47;4.32;;;;;;;;;;5015017;28;20045;-78
2024/01/21 04:49:06;;;;;;;6.15;4.40;;;;;;;;;;5033137;28;20037;-78
2024/01/21 04:51:32;;;;;;;7.00;4.78;;;;;;;;;;5013783;28;20041;-78
2024/01/21 04:53:58;;;;;;;6.03;3.90;;;;;;;;;;5033003;28;20372;-78
2024/01/21 04:56:25;;;;;;;7.28;4.50;;;;;;;;;;5032303;28;20041;-78
2024/01/21 04:58:51;;;;;;;7.20;4.30;;;;;;;;;;5023782;28;20064;-78
2024/01/21 05:01:17;;;;;;;6.90;4.22;;;;;;;;;;5024899;28;20544;-78
2024/01/21 05:03:43;;;;;;;5.25;4.00;;;;;;;;;;5013331;28;20042;-78
2024/01/21 05:06:09;;;;;;;6.28;4.18;;;;;;;;;;5028048;28;20103;-78
2024/01/21 05:08:35;;;;;;;5.95;4.00;;;;;;;;;;5033461;28;20120;-77
2024/01/21 05:11:01;;;;;;;7.05;4.47;;;;;;;;;;5029091;28;20057;-77
2024/01/21 05:13:27;;;;;;;5.95;4.30;;;;;;;;;;5026573;28;20049;-77
2024/01/21 05:15:53;;;;;;;7.30;4.55;;;;;;;;;;5032125;28;20519;-78
2024/01/21 05:18:20;;;;;;;6.03;4.10;;;;;;;;;;5032084;28;20045;-77
2024/01/21 05:20:46;;;;;;;6.93;4.57;;;;;;;;;;4985483;28;20048;-77
2024/01/21 05:23:13;;;;;;;6.18;3.85;;;;;;;;;;5005519;28;20042;-77
2024/01/21 05:25:39;;;;;;;7.32;4.38;;;;;;;;;;5000401;28;20092;-78
2024/01/21 05:28:05;;;;;;;6.30;3.78;;;;;;;;;;5019374;28;20049;-78
2024/01/21 05:30:31;;;;;;;5.47;4.15;;;;;;;;;;5026273;28;20038;-77
2024/01/21 05:32:57;;;;;;;5.55;3.67;;;;;;;;;;5013980;28;20084;-77
2024/01/21 05:35:23;;;;;;;6.03;4.10;;;;;;;;;;5002101;28;20080;-77
2024/01/21 05:37:49;;;;;;;6.00;3.55;;;;;;;;;;5023494;28;20511;-77
2024/01/21 05:40:16;;;;;;;6.80;4.35;;;;;;;;;;5016683;28;20049;-77
2024/01/21 05:42:42;;;;;;;6.38;3.75;;;;;;;;;;5024520;28;20124;-77
2024/01/21 05:45:08;;;;;;;5.50;3.65;;;;;;;;;;4996883;28;20041;-77
2024/01/21 05:47:35;;;;;;;10.32;4.38;;;;;;;;;;5010367;28;20077;-77
2024/01/21 05:50:01;;;;;;;7.75;4.60;;;;;;;;;;5029765;28;20485;-77
2024/01/21 05:52:27;;;;;;;7.07;3.90;;;;;;;;;;4999177;28;20037;-77
2024/01/21 05:54:53;;;;;;;5.82;3.97;;;;;;;;;;5032564;28;20087;-78
2024/01/21 05:57:19;;;;;;;5.13;3.60;;;;;;;;;;5034240;28;20077;-77
2024/01/21 05:59:45;;;;;;;5.70;3.63;;;;;;;;;;5032863;28;20073;-77
2024/01/21 06:02:11;;;;;;;6.50;4.40;;;;;;;;;;5011312;28;20128;-77
2024/01/21 06:04:40;;;;;;;7.15;4.25;;;;;;;;;;5031480;28;20045;-77
2024/01/21 06:07:06;;;;;;;6.65;3.88;;;;;;;;;;5029776;28;20048;-77
2024/01/21 06:09:32;;;;;;;6.70;4.30;;;;;;;;;;5035451;28;20092;-78
2024/01/21 06:11:58;;;;;;;6.05;3.90;;;;;;;;;;5036238;28;20120;-77
2024/01/21 06:14:24;;;;;;;5.88;3.50;;;;;;;;;;5035726;28;20085;-77
2024/01/21 06:16:52;;;;;;;6.10;4.30;;;;;;;;;;5035670;28;20072;-77
2024/01/21 06:19:18;;;;;;;5.35;4.03;;;;;;;;;;5021280;28;20053;-77
2024/01/21 06:21:45;;;;;;;6.25;4.13;;;;;;;;;;5035930;28;20438;-77
2024/01/21 06:24:12;;;;;;;5.22;3.53;;;;;;;;;;5023961;28;20072;-77
2024/01/21 06:26:40;;;;;;;6.03;3.88;;;;;;;;;;5009556;28;20132;-78
2024/01/21 06:29:06;;;;;;;6.45;4.00;;;;;;;;;;5035814;28;20041;-77
2024/01/21 06:31:32;;;;;;;5.88;3.92;;;;;;;;;;5028905;28;20500;-77
2024/01/21 06:33:58;;;;;;;5.25;4.13;;;;;;;;;;5002728;28;20049;-77
2024/01/21 06:36:25;;;;;;;6.82;4.18;;;;;;;;;;5030689;28;20128;-77
2024/01/21 06:38:51;;;;;;;6.70;4.20;;;;;;;;;;5029808;28;20084;-78
2024/01/21 06:41:17;;;;;;;5.55;3.95;;;;;;;;;;5034577;28;20046;-78
2024/01/21 06:43:43;;;;;;;5.47;3.95;;;;;;;;;;5018449;28;20053;-77
2024/01/21 06:46:09;;;;;;;5.90;4.22;;;;;;;;;;5032364;28;20045;-77
2024/01/21 06:48:36;;;;;;;7.97;4.43;;;;;;;;;;5035987;28;20160;-77
2024/01/21 06:51:09;;;;;;;8.55;4.30;;;;;;;;;;5025258;28;20041;-76
2024/01/21 06:53:35;;;;;;;7.10;3.70;;;;;;;;;;5020508;28;20085;-77
2024/01/21 06:56:06;;;;;;;6.10;4.00;;;;;;;;;;5023072;28;20104;-77
2024/01/21 06:58:33;;;;;;;6.10;4.30;;;;;;;;;;5015883;28;20056;-75
2024/01/21 07:00:59;;;;;;;6.35;3.78;;;;;;;;;;5031185;28;20052;-77
2024/01/21 07:03:25;;;;;;;6.60;3.80;;;;;;;;;;5029539;28;20091;-77
2024/01/21 07:05:52;;;;;;;5.63;3.95;;;;;;;;;;5032203;28;20042;-77
2024/01/21 07:08:18;;;;;;;7.00;4.13;;;;;;;;;;5033035;28;20037;-77
2024/01/21 07:10:44;;;;;;;7.03;4.50;;;;;;;;;;5010573;28;20129;-77
2024/01/21 07:13:11;;;;;;;7.90;4.50;;;;;;;;;;5017372;28;20042;-77
2024/01/21 07:15:37;;;;;;;8.45;5.03;;;;;;;;;;4998130;28;20050;-76
2024/01/21 07:18:03;;;;;;;7.28;4.18;;;;;;;;;;5033956;28;20120;-76
2024/01/21 07:20:29;;;;;;;6.68;4.28;;;;;;;;;;5034885;28;20114;-76
2024/01/21 07:22:56;;;;;;;6.97;4.55;;;;;;;;;;5029034;28;20568;-76
2024/01/21 07:25:22;;;;;;;7.05;4.10;;;;;;;;;;5015598;28;20176;-77
2024/01/21 07:27:48;;;;;;;6.70;4.13;;;;;;;;;;4998355;28;20409;-77
2024/01/21 07:30:15;;;;;;;6.78;4.80;;;;;;;;;;5008922;28;20500;-76
2024/01/21 07:32:41;;;;;;;7.70;4.28;;;;;;;;;;5027253;28;20041;-76
2024/01/21 07:35:10;;;;;;;9.82;4.82;;;;;;;;;;5021559;28;20444;-76
2024/01/21 07:37:37;;;;;;;8.60;5.22;;;;;;;;;;5032815;28;20041;-76
2024/01/21 07:40:03;;;;;;;5.68;4.20;;;;;;;;;;5019567;28;20100;-76
2024/01/21 07:42:30;;;;;;;8.10;4.63;;;;;;;;;;5033289;28;20068;-76
2024/01/21 07:44:56;;;;;;;8.50;5.00;;;;;;;;;;5026996;28;20077;-79
2024/01/21 07:47:22;;;;;;;7.50;4.82;;;;;;;;;;5010074;28;20096;-78
2024/01/21 07:49:48;;;;;;;6.70;4.57;;;;;;;;;;5009658;28;20103;-78
2024/01/21 07:52:16;;;;;;;7.68;5.15;;;;;;;;;;5021941;28;20042;-78
2024/01/21 07:54:42;;;;;;;8.75;5.03;;;;;;;;;;5034051;28;20169;-78
2024/01/21 07:57:08;;;;;;;8.73;4.80;;;;;;;;;;5034501;28;20041;-77
2024/01/21 07:59:34;;;;;;;7.60;4.82;;;;;;;;;;5030777;28;20042;-78
2024/01/21 08:02:00;;;;;;;9.38;4.95;;;;;;;;;;5031309;28;20140;-78
2024/01/21 08:04:27;;;;;;;7.35;4.60;;;;;;;;;;5029118;28;20408;-77
2024/01/21 08:06:53;;;;;;;7.28;5.47;;;;;;;;;;5024859;28;20056;-77
2024/01/21 08:09:19;;;;;;;11.05;5.20;;;;;;;;;;5030415;28;20042;-78
2024/01/21 08:11:45;;;;;;;6.38;4.57;;;;;;;;;;5033403;28;20120;-78
2024/01/21 08:14:11;;;;;;;8.23;4.63;;;;;;;;;;5032329;28;20056;-79
2024/01/21 08:16:37;;;;;;;7.75;5.10;;;;;;;;;;5013316;28;20053;-78
2024/01/21 08:19:04;;;;;;;8.45;5.70;;;;;;;;;;5029150;28;20543;-77
2024/01/21 08:21:30;;;;;;;9.50;5.25;;;;;;;;;;5034647;28;20555;-79
2024/01/21 08:23:56;;;;;;;7.60;5.10;;;;;;;;;;5033762;28;20044;-78
2024/01/21 08:26:22;;;;;;;7.70;5.07;;;;;;;;;;5019343;28;20050;-79
2024/01/21 08:28:48;;;;;;;9.52;5.40;;;;;;;;;;5021652;28;20373;-79
2024/01/21 08:31:16;;;;;;;10.27;6.28;;;;;;;;;;5020317;28;20089;-78
2024/01/21 08:33:42;;;;;;;7.68;5.13;;;;;;;;;;5024521;28;20118;-78
2024/01/21 08:36:08;;;;;;;7.30;4.88;;;;;;;;;;5010090;28;20076;-78
2024/01/21 08:38:35;;;;;;;10.05;6.00;;;;;;;;;;5015905;28;20428;-79
2024/01/21 08:41:01;;;;;;;11.40;6.25;;;;;;;;;;5033378;28;20049;-78
2024/01/21 08:43:27;;;;;;;11.18;6.38;;;;;;;;;;5007038;28;20132;-78
2024/01/21 08:45:53;;;;;;;8.52;5.43;;;;;;;;;;5004645;28;20049;-78
2024/01/21 08:48:19;;;;;;;7.63;5.13;;;;;;;;;;5033165;28;20033;-78
2024/01/21 08:50:45;;;;;;;7.78;5.20;;;;;;;;;;5025759;28;20037;-78
2024/01/21 08:53:11;;;;;;;7.55;5.43;;;;;;;;;;5021722;28;20037;-78
2024/01/21 08:55:37;;;;;;;7.82;5.70;;;;;;;;;;5030844;28;20044;-78
2024/01/21 08:58:03;;;;;;;7.28;4.72;;;;;;;;;;5020243;28;20069;-78
2024/01/21 09:00:30;;;;;;;7.82;5.15;;;;;;;;;;5024078;28;20050;-78
2024/01/21 09:02:56;;;;;;;7.95;5.40;;;;;;;;;;5015681;28;20405;-78
2024/01/21 09:05:22;;;;;;;9.15;5.57;;;;;;;;;;5032126;28;20092;-78
2024/01/21 09:07:49;;;;;;;8.95;5.90;;;;;;;;;;5016541;28;20115;-78
2024/01/21 09:10:15;;;;;;;7.68;5.47;;;;;;;;;;5022305;28;20049;-78
2024/01/21 09:12:41;;;;;;;8.25;5.50;;;;;;;;;;5016878;28;20053;-77
2024/01/21 09:15:08;;;;;;;13.57;8.63;;;;;;;;;;5022101;28;20061;-78
2024/01/21 09:17:34;;;;;;;13.70;7.57;;;;;;;;;;5029269;28;20570;-78
2024/01/21 09:20:00;;;;;;;9.25;6.55;;;;;;;;;;5023193;28;20046;-78
2024/01/21 09:22:26;;;;;;;11.50;6.97;;;;;;;;;;5025995;28;20120;-78
2024/01/21 09:24:53;;;;;;;10.93;6.97;;;;;;;;;;5024272;28;20451;-78
2024/01/21 09:27:19;;;;;;;10.57;7.10;;;;;;;;;;5024899;28;20037;-78
2024/01/21 09:29:45;;;;;;;12.05;8.23;;;;;;;;;;5025689;28;20100;-77
2024/01/21 09:32:11;;;;;;;16.58;9.60;;;;;;;;;;5029884;28;20045;-77
2024/01/21 09:34:39;;;;;;;8.68;5.57;;;;;;;;;;5021969;28;20120;-77
2024/01/21 09:37:05;;;;;;;9.98;6.65;;;;;;;;;;5031834;28;20369;-77
2024/01/21 09:39:31;;;;;;;11.88;8.05;;;;;;;;;;5032162;28;20045;-77
2024/01/21 09:41:58;;;;;;;13.15;7.25;;;;;;;;;;5024785;28;20505;-77
2024/01/21 09:44:28;;;;;;;19.00;9.07;;;;;;;;;;5023073;28;20052;-77
2024/01/21 09:46:56;;;;;;;8.45;5.97;;;;;;;;;;5015135;28;20042;-77
2024/01/21 09:49:22;;;;;;;11.18;6.63;;;;;;;;;;5023731;28;20049;-77
2024/01/21 09:51:49;;;;;;;10.85;7.07;;;;;;;;;;5024864;28;20137;-79
2024/01/21 09:54:15;;;;;;;9.35;5.90;;;;;;;;;;5003894;28;20058;-77
2024/01/21 09:56:42;;;;;;;9.50;6.63;;;;;;;;;;5018334;28;20095;-77
2024/01/21 09:59:11;;;;;;;8.80;6.00;;;;;;;;;;5031500;28;20045;-77
2024/01/21 10:01:39;;;;;;;8.50;5.75;;;;;;;;;;5021464;28;20045;-77
2024/01/21 10:04:06;;;;;;;9.63;6.95;;;;;;;;;;5020812;28;20042;-77
2024/01/21 10:06:32;;;;;;;10.50;7.95;;;;;;;;;;5020098;28;20081;-77
2024/01/21 10:09:11;;;;;;;9.65;6.32;;;;;;;;;;5014074;28;20045;-77
2024/01/21 10:11:37;;;;;;;7.85;5.88;;;;;;;;;;5019937;28;20465;-77
2024/01/21 10:14:03;;;;;;;11.18;7.53;;;;;;;;;;5017768;28;20054;-77
2024/01/21 10:16:30;;;;;;;9.85;6.55;;;;;;;;;;5015924;28;20124;-77
2024/01/21 10:18:57;;;;;;;11.10;7.72;;;;;;;;;;5027916;28;20393;-76
2024/01/21 10:21:23;;;;;;;12.93;8.77;;;;;;;;;;5024312;28;20034;-77
2024/01/21 10:23:49;;;;;;;11.73;7.78;;;;;;;;;;5015712;28;20396;-75
2024/01/21 10:26:15;;;;;;;13.73;8.13;;;;;;;;;;5023746;28;20042;-77
2024/01/21 10:28:41;;;;;;;10.88;8.52;;;;;;;;;;5011938;28;20065;-77
2024/01/21 10:31:07;;;;;;;10.98;7.18;;;;;;;;;;5033814;28;20168;-77
2024/01/21 10:33:33;;;;;;;10.40;7.57;;;;;;;;;;5016206;28;20049;-77
2024/01/21 10:36:03;;;;;;;10.68;6.35;;;;;;;;;;5016304;28;20120;-77
2024/01/21 10:38:29;;;;;;;10.90;6.88;;;;;;;;;;5031212;28;20428;-77
2024/01/21 10:40:56;;;;;;;10.32;7.32;;;;;;;;;;5032979;28;20045;-77
2024/01/21 10:43:22;;;;;;;10.90;7.05;;;;;;;;;;5027889;28;20046;-77
2024/01/21 10:45:49;;;;;;;13.85;7.88;;;;;;;;;;5004826;28;20045;-77
2024/01/21 10:48:16;;;;;;;10.95;7.13;;;;;;;;;;5029334;28;20038;-77
2024/01/21 10:50:43;;;;;;;11.43;7.22;;;;;;;;;;5015995;28;20038;-77
2024/01/21 10:53:12;;;;;;;13.45;7.15;;;;;;;;;;5035032;28;20505;-79
2024/01/21 10:55:41;;;;;;;12.93;7.38;;;;;;;;;;5030994;28;20037;-77
2024/01/21 10:58:08;;;;;;;11.18;8.13;;;;;;;;;;5030160;28;20087;-77
2024/01/21 11:00:38;;;;;;;11.05;7.80;;;;;;;;;;5030796;28;20092;-77
2024/01/21 11:03:23;;;;;;;12.38;7.90;;;;;;;;;;5013557;28;20050;-77
2024/01/21 11:06:10;;;;;;;12.07;7.43;;;;;;;;;;5025983;28;20394;-77
2024/01/21 11:08:36;;;;;;;11.10;7.45;;;;;;;;;;5023826;28;20100;-77
2024/01/21 11:11:07;;;;;;;10.27;7.07;;;;;;;;;;5033800;28;20045;-76
2024/01/21 11:13:41;;;;;;;11.43;8.13;;;;;;;;;;5025135;28;20347;-76
2024/01/21 11:16:07;;;;;;;11.93;7.78;;;;;;;;;;5016818;28;20128;-77
2024/01/21 11:18:33;;;;;;;9.30;7.07;;;;;;;;;;5034752;28;20519;-77
2024/01/21 11:21:01;;;;;;;11.57;6.97;;;;;;;;;;5030473;28;20045;-77
2024/01/21 11:23:28;;;;;;;9.90;6.97;;;;;;;;;;5034269;28;20092;-77
2024/01/21 11:25:54;;;;;;;10.57;6.45;;;;;;;;;;4999246;28;20057;-77
2024/01/21 11:28:27;;;;;;;10.20;7.05;;;;;;;;;;5026955;28;20091;-76
2024/01/21 11:30:59;;;;;;;13.15;7.15;;;;;;;;;;5003846;28;20076;-77
2024/01/21 11:33:25;;;;;;;15.57;9.63;;;;;;;;;;5021498;28;20065;-77
2024/01/21 11:35:53;;;;;;;11.82;8.10;;;;;;;;;;5004171;28;20326;-77
2024/01/21 11:38:19;;;;;;;13.70;9.35;;;;;;;;;;5025717;28;20405;-77
2024/01/21 11:40:45;;;;;;;16.92;11.20;;;;;;;;;;5015948;28;20048;-77
2024/01/21 11:43:11;;;;;;;14.45;10.75;;;;;;;;;;5003096;28;20467;-77
2024/01/21 11:45:38;;;;;;;20.65;11.88;;;;;;;;;;5034465;28;20476;-78
2024/01/21 11:48:10;;;;;;;25.50;15.50;;;;;;;;;;5020468;28;20068;-77
2024/01/21 11:50:36;;;;;;;19.65;11.77;;;;;;;;;;5019568;28;20120;-77
2024/01/21 11:53:02;;;;;;;15.93;10.93;;;;;;;;;;5007966;28;20124;-77
2024/01/21 11:55:28;;;;;;;22.05;11.43;;;;;;;;;;5027040;28;20045;-77
2024/01/21 11:57:54;;;;;;;17.33;10.77;;;;;;;;;;5007205;28;20507;-81
2024/01/21 12:00:20;;;;;;;15.77;9.88;;;;;;;;;;5034163;28;20502;-77
2024/01/21 12:02:47;;;;;;;18.45;11.45;;;;;;;;;;5023822;28;20128;-77
2024/01/21 12:05:18;;;;;;;20.23;11.43;;;;;;;;;;5028427;28;20038;-76
2024/01/21 12:07:44;;;;;;;18.88;11.52;;;;;;;;;;5026820;28;20049;-77
2024/01/21 12:10:10;;;;;;;21.85;11.75;;;;;;;;;;5004112;28;20061;-77
2024/01/21 12:12:36;;;;;;;16.42;11.73;;;;;;;;;;5005051;28;20052;-77
2024/01/21 12:15:02;;;;;;;16.23;10.02;;;;;;;;;;5025321;28;20053;-77
2024/01/21 12:17:28;;;;;;;13.40;9.32;;;;;;;;;;5027893;28;20065;-77
2024/01/21 12:19:54;;;;;;;18.80;10.57;;;;;;;;;;5022117;28;20424;-77
2024/01/21 12:22:35;;;;;;;18.00;11.30;;;;;;;;;;5031059;28;20109;-78
2024/01/21 12:25:01;;;;;;;18.67;11.43;;;;;;;;;;5009792;28;20496;-77
2024/01/21 12:27:27;;;;;;;18.58;11.02;;;;;;;;;;5032625;28;20047;-77
2024/01/21 12:29:53;;;;;;;20.08;12.50;;;;;;;;;;5010996;28;20121;-77
2024/01/21 12:32:20;;;;;;;20.10;11.18;;;;;;;;;;5021155;28;20064;-77
2024/01/21 12:34:46;;;;;;;19.35;11.38;;;;;;;;;;5034063;28;20049;-78
2024/01/21 12:37:12;;;;;;;19.88;11.00;;;;;;;;;;5027966;28;20428;-79
2024/01/21 12:39:40;;;;;;;17.52;11.75;;;;;;;;;;5024643;28;20088;-75
2024/01/21 12:42:06;;;;;;;18.92;11.18;;;;;;;;;;5033350;28;20045;-75
2024/01/21 12:44:32;;;;;;;18.75;10.90;;;;;;;;;;5021469;28;20049;-75
2024/01/21 12:46:58;;;;;;;20.27;8.98;;;;;;;;;;5030961;28;20064;-75
2024/01/21 12:49:24;;;;;;;20.15;10.68;;;;;;;;;;5033369;28;20045;-74
2024/01/21 12:51:50;;;;;;;16.65;12.25;;;;;;;;;;5014720;28;20041;-74
2024/01/21 12:54:16;;;;;;;24.23;14.02;;;;;;;;;;5010255;28;20041;-75
2024/01/21 12:56:42;;;;;;;16.48;11.45;;;;;;;;;;5032395;28;20045;-74
2024/01/21 12:59:09;;;;;;;16.50;10.60;;;;;;;;;;5033163;28;20113;-74
2024/01/21 13:01:35;;;;;;;20.40;12.10;;;;;;;;;;5031500;28;20050;-75
2024/01/21 13:04:01;;;;;;;21.95;10.98;;;;;;;;;;5031341;28;20052;-75
2024/01/21 13:06:27;;;;;;;19.40;11.77;;;;;;;;;;5007240;28;20045;-74
2024/01/21 13:08:53;;;;;;;17.73;11.70;;;;;;;;;;5028686;28;20041;-75
2024/01/21 13:11:20;;;;;;;21.92;12.43;;;;;;;;;;5018320;28;20037;-74
2024/01/21 13:13:46;;;;;;;18.85;12.10;;;;;;;;;;5032688;28;20096;-75
2024/01/21 13:16:13;;;;;;;19.52;11.05;;;;;;;;;;5019302;28;20053;-76
2024/01/21 13:18:41;;;;;;;19.98;11.60;;;;;;;;;;5021702;28;20128;-74
2024/01/21 13:21:07;;;;;;;15.23;10.38;;;;;;;;;;5023848;28;20048;-75
2024/01/21 13:23:33;;;;;;;19.52;11.70;;;;;;;;;;5020732;28;20050;-75
2024/01/21 13:25:59;;;;;;;17.83;11.38;;;;;;;;;;5022858;28;20038;-75
2024/01/21 13:30:53;;;;;;;22.70;12.00;;;;;;;;;;5023429;28;20106;-75
2024/01/21 13:33:22;;;;;;;17.05;11.57;;;;;;;;;;5032344;28;20504;-75
2024/01/21 13:35:48;;;;;;;19.58;11.35;;;;;;;;;;5031731;28;20132;-75
2024/01/21 13:38:15;;;;;;;21.90;11.82;;;;;;;;;;5032559;28;20038;-75
2024/01/21 13:40:42;;;;;;;17.63;11.57;;;;;;;;;;5029462;28;20077;-75
2024/01/21 13:43:08;;;;;;;26.90;11.55;;;;;;;;;;5005535;28;20547;-75
2024/01/21 13:45:36;;;;;;;17.48;10.60;;;;;;;;;;5027683;28;20045;-75
2024/01/21 13:48:03;;;;;;;17.52;10.38;;;;;;;;;;5032026;28;20052;-75
2024/01/21 13:50:30;;;;;;;20.17;11.27;;;;;;;;;;5025534;28;20131;-75
2024/01/21 13:52:59;;;;;;;17.88;11.05;;;;;;;;;;5031279;28;20045;-75
2024/01/21 13:55:25;;;;;;;17.42;11.43;;;;;;;;;;5013636;28;20049;-75
2024/01/21 13:57:51;;;;;;;17.40;10.70;;;;;;;;;;5032347;28;20048;-75
2024/01/21 14:00:18;;;;;;;19.48;11.85;;;;;;;;;;5014116;28;20116;-75
2024/01/21 14:02:45;;;;;;;21.15;10.55;;;;;;;;;;5007520;28;20061;-75
2024/01/21 14:05:11;;;;;;;20.80;10.77;;;;;;;;;;5035888;28;20136;-75
2024/01/21 14:07:37;;;;;;;17.05;10.52;;;;;;;;;;5035925;28;20049;-75
2024/01/21 14:10:03;;;;;;;17.33;11.27;;;;;;;;;;5028796;28;20041;-75
2024/01/21 14:12:29;;;;;;;18.13;10.77;;;;;;;;;;5029699;28;20128;-75
2024/01/21 14:14:56;;;;;;;18.23;10.02;;;;;;;;;;5028169;28;20057;-75
2024/01/21 14:17:25;;;;;;;18.92;10.68;;;;;;;;;;5032050;28;20063;-75
2024/01/21 14:19:51;;;;;;;17.25;9.57;;;;;;;;;;5035601;28;20121;-75
2024/01/21 14:22:17;;;;;;;16.20;9.48;;;;;;;;;;5035925;28;20056;-75
2024/01/21 14:24:45;;;;;;;19.20;10.25;;;;;;;;;;5034388;28;20046;-76
2024/01/21 14:27:12;;;;;;;17.35;10.77;;;;;;;;;;5035612;28;20606;-75
2024/01/21 14:29:40;;;;;;;16.88;10.55;;;;;;;;;;5036020;28;20045;-75
2024/01/21 14:32:06;;;;;;;16.48;11.20;;;;;;;;;;5022266;28;20061;-75
2024/01/21 14:34:32;;;;;;;18.80;10.23;;;;;;;;;;5035239;28;20088;-75